createdAt,value
2022-10-02T00:01:32.006Z,89.18
2022-10-02T00:04:02.380Z,89.11
2022-10-02T00:06:41.764Z,89.33
2022-10-02T00:09:21.587Z,89.00
2022-10-02T00:11:54.962Z,88.79
2022-10-02T00:14:26.306Z,88.75
2022-10-02T00:17:01.048Z,88.69
2022-10-02T00:19:29.288Z,89.00
2022-10-02T00:22:31.274Z,88.84
2022-10-02T00:25:09.950Z,88.09
2022-10-02T00:28:07.961Z,88.11
2022-10-02T00:31:00.583Z,88.10
2022-10-02T00:33:48.038Z,88.24
2022-10-02T00:36:37.215Z,88.31
2022-10-02T00:39:26.253Z,88.26
2022-10-02T00:42:46.095Z,88.37
2022-10-02T00:45:53.427Z,89.05
2022-10-02T00:48:55.773Z,89.14
2022-10-02T00:51:55.554Z,89.20
2022-10-02T00:54:56.283Z,88.64
2022-10-02T00:57:46.292Z,89.03
2022-10-02T01:00:18.372Z,88.58
2022-10-02T01:03:06.866Z,88.75
2022-10-02T01:05:36.617Z,88.76
2022-10-02T01:08:05.907Z,88.56
2022-10-02T01:10:35.347Z,88.81
2022-10-02T01:13:03.684Z,89.20
2022-10-02T01:15:37.094Z,88.74
2022-10-02T01:18:05.710Z,88.93
2022-10-02T01:20:41.653Z,88.72
2022-10-02T01:23:27.515Z,88.90
2022-10-02T01:25:57.494Z,89.33
2022-10-02T01:28:26.087Z,89.39
2022-10-02T01:31:02.467Z,88.92
2022-10-02T01:33:31.631Z,89.15
2022-10-02T01:36:00.118Z,89.39
2022-10-02T01:38:29.384Z,88.81
2022-10-02T01:40:58.884Z,88.97
2022-10-02T01:43:32.948Z,87.73
2022-10-02T01:46:21.818Z,86.96
2022-10-02T01:49:09.830Z,86.26
2022-10-02T01:52:09.644Z,85.70
2022-10-02T01:54:52.974Z,84.26
2022-10-02T01:57:40.079Z,84.05
2022-10-02T02:00:13.962Z,84.25
2022-10-02T02:02:57.843Z,84.53
2022-10-02T02:05:46.104Z,84.42
2022-10-02T02:08:28.662Z,83.69
2022-10-02T02:11:11.473Z,83.47
2022-10-02T02:13:49.199Z,82.44
2022-10-02T02:16:26.833Z,81.99
2022-10-02T02:19:04.126Z,81.93
2022-10-02T02:21:37.098Z,82.44
2022-10-02T02:24:12.483Z,82.44
2022-10-02T02:26:43.723Z,82.23
2022-10-02T02:29:18.046Z,82.58
2022-10-02T02:31:53.409Z,83.42
2022-10-02T02:34:30.263Z,83.98
2022-10-02T02:37:07.891Z,84.42
2022-10-02T02:39:43.637Z,85.17
2022-10-02T02:42:17.963Z,85.65
2022-10-02T02:44:56.833Z,85.21
2022-10-02T02:47:32.032Z,85.52
2022-10-02T02:50:06.221Z,85.45
2022-10-02T02:52:42.918Z,85.70
2022-10-02T02:55:18.266Z,85.58
2022-10-02T02:57:55.169Z,85.75
2022-10-02T03:00:26.267Z,86.00
2022-10-02T03:02:55.630Z,85.90
2022-10-02T03:05:26.012Z,84.62
2022-10-02T03:07:57.993Z,85.00
2022-10-02T03:10:47.944Z,85.24
2022-10-02T03:13:40.384Z,86.01
2022-10-02T03:16:27.296Z,85.95
2022-10-02T03:19:16.860Z,85.38
2022-10-02T03:22:05.198Z,84.77
2022-10-02T03:24:45.471Z,85.24
2022-10-02T03:27:21.695Z,84.70
2022-10-02T03:30:00.605Z,84.68
2022-10-02T03:32:33.382Z,84.97
2022-10-02T03:35:03.986Z,85.81
2022-10-02T03:37:33.472Z,85.57
2022-10-02T03:40:04.279Z,85.49
2022-10-02T03:42:36.105Z,86.00
2022-10-02T03:45:04.585Z,86.08
2022-10-02T03:47:33.986Z,85.84
2022-10-02T03:50:01.968Z,83.77
2022-10-02T03:52:35.715Z,82.78
2022-10-02T03:55:14.462Z,82.72
2022-10-02T03:57:47.457Z,81.81
2022-10-02T04:00:23.393Z,81.15
2022-10-02T04:02:59.975Z,80.04
2022-10-02T04:05:34.888Z,79.83
2022-10-02T04:08:11.844Z,79.68
2022-10-02T04:10:50.643Z,80.02
2022-10-02T04:13:29.983Z,79.58
2022-10-02T04:16:09.735Z,79.93
2022-10-02T04:18:49.391Z,80.04
2022-10-02T04:21:32.228Z,81.05
2022-10-02T04:24:14.001Z,80.18
2022-10-02T04:26:52.496Z,80.69
2022-10-02T04:29:28.093Z,81.11
2022-10-02T04:32:12.215Z,81.78
2022-10-02T04:34:42.472Z,82.33
2022-10-02T04:37:44.053Z,82.62
2022-10-02T04:40:31.015Z,82.46
2022-10-02T04:43:16.317Z,82.26
2022-10-02T04:46:08.646Z,82.67
2022-10-02T04:49:18.406Z,82.15
2022-10-02T04:52:06.483Z,82.55
2022-10-02T04:55:16.263Z,83.39
2022-10-02T04:58:01.648Z,83.88
2022-10-02T05:00:38.262Z,84.54
2022-10-02T05:03:35.370Z,85.61
2022-10-02T05:06:26.330Z,86.07
2022-10-02T05:09:12.639Z,86.39
2022-10-02T05:12:03.758Z,86.42
2022-10-02T05:15:03.898Z,86.81
2022-10-02T05:17:53.077Z,86.80
2022-10-02T05:20:56.796Z,85.75
2022-10-02T05:23:44.107Z,85.57
2022-10-02T05:26:42.542Z,85.72
2022-10-02T05:29:32.232Z,85.97
2022-10-02T05:32:25.553Z,86.38
2022-10-02T05:35:14.340Z,86.76
2022-10-02T05:37:58.227Z,85.75
2022-10-02T05:40:34.946Z,85.93
2022-10-02T05:43:12.548Z,86.30
2022-10-02T05:45:47.702Z,86.70
2022-10-02T05:48:21.959Z,86.24
2022-10-02T05:50:56.069Z,86.53
2022-10-02T05:53:36.153Z,86.47
2022-10-02T05:56:13.091Z,86.17
2022-10-02T05:58:51.393Z,86.23
2022-10-02T06:01:28.785Z,85.16
2022-10-02T06:04:04.467Z,84.59
2022-10-02T06:06:40.337Z,83.02
2022-10-02T06:09:20.047Z,82.00
2022-10-02T06:11:57.042Z,82.44
2022-10-02T06:14:35.309Z,82.18
2022-10-02T06:17:12.426Z,81.16
2022-10-02T06:19:49.260Z,80.26
2022-10-02T06:22:22.123Z,80.34
2022-10-02T06:24:58.254Z,80.12
2022-10-02T06:27:36.924Z,79.61
2022-10-02T06:30:10.952Z,78.40
2022-10-02T06:32:49.535Z,77.76
2022-10-02T06:35:35.442Z,78.06
2022-10-02T06:38:22.746Z,76.01
2022-10-02T06:41:03.483Z,75.58
2022-10-02T06:44:03.360Z,75.53
2022-10-02T06:46:52.367Z,75.16
2022-10-02T06:49:39.369Z,75.33
2022-10-02T06:52:24.756Z,74.49
2022-10-02T06:55:23.208Z,73.66
2022-10-02T06:58:45.319Z,72.70
2022-10-02T07:01:29.909Z,71.03
2022-10-02T07:04:33.106Z,68.31
2022-10-02T07:07:22.887Z,67.27
2022-10-02T07:10:30.387Z,68.43
2022-10-02T07:13:26.956Z,69.31
2022-10-02T07:16:22.959Z,69.38
2022-10-02T07:19:19.873Z,70.88
2022-10-02T07:22:00.705Z,70.76
2022-10-02T07:24:53.074Z,71.09
2022-10-02T07:27:27.173Z,69.69
2022-10-02T07:30:04.153Z,68.78
2022-10-02T07:32:48.757Z,65.98
2022-10-02T07:35:46.554Z,65.10
2022-10-02T07:38:46.001Z,63.86
2022-10-02T07:41:59.881Z,63.24
2022-10-02T07:44:54.166Z,63.99
2022-10-02T07:47:47.164Z,64.67
2022-10-02T07:50:32.222Z,66.16
2022-10-02T07:53:12.270Z,66.12
2022-10-02T07:55:44.456Z,66.61
2022-10-02T07:58:19.354Z,68.33
2022-10-02T08:00:54.035Z,70.15
2022-10-02T08:03:28.865Z,72.30
2022-10-02T08:06:00.485Z,73.65
2022-10-02T08:08:38.650Z,73.80
2022-10-02T08:11:15.444Z,73.63
2022-10-02T08:13:50.348Z,73.74
2022-10-02T08:16:23.314Z,73.51
2022-10-02T08:18:59.854Z,73.65
2022-10-02T08:21:39.863Z,72.63
2022-10-02T08:24:16.345Z,72.16
2022-10-02T08:26:54.639Z,72.98
2022-10-02T08:29:29.905Z,72.38
2022-10-02T08:31:58.128Z,71.34
2022-10-02T08:34:26.791Z,71.59
2022-10-02T08:37:18.376Z,71.64
2022-10-02T08:40:36.634Z,71.22
2022-10-02T08:43:51.304Z,70.60
2022-10-02T08:47:03.265Z,70.32
2022-10-02T08:50:14.877Z,70.50
2022-10-02T08:53:57.169Z,70.21
2022-10-02T08:57:03.702Z,70.28
2022-10-02T09:00:09.315Z,71.12
2022-10-02T09:03:36.738Z,70.96
2022-10-02T09:06:58.587Z,70.17
2022-10-02T09:10:45.930Z,68.31
2022-10-02T09:14:10.014Z,67.38
2022-10-02T09:17:02.365Z,67.12
2022-10-02T09:19:49.363Z,67.45
2022-10-02T09:23:14.426Z,67.10
2022-10-02T09:25:58.582Z,65.81
2022-10-02T09:29:30.519Z,65.46
2022-10-02T09:32:59.617Z,64.74
2022-10-02T09:36:30.085Z,63.89
2022-10-02T09:39:46.161Z,63.88
2022-10-02T09:43:17.353Z,64.68
2022-10-02T09:46:43.067Z,65.77
2022-10-02T09:49:57.358Z,66.28
2022-10-02T09:53:20.804Z,64.38
2022-10-02T09:56:34.733Z,65.66
2022-10-02T09:59:48.316Z,65.37
2022-10-02T10:03:17.974Z,64.66
2022-10-02T10:06:27.718Z,64.76
2022-10-02T10:09:36.387Z,65.69
2022-10-02T10:12:42.820Z,67.65
2022-10-02T10:16:29.768Z,67.71
2022-10-02T10:19:49.816Z,68.92
2022-10-02T10:23:07.463Z,67.82
2022-10-02T10:26:28.596Z,68.47
2022-10-02T10:29:38.905Z,66.46
2022-10-02T10:33:07.030Z,65.21
2022-10-02T10:36:56.165Z,65.67
2022-10-02T10:40:14.287Z,64.82
2022-10-02T10:43:19.946Z,63.80
2022-10-02T10:46:25.465Z,64.08
2022-10-02T10:49:30.577Z,63.40
2022-10-02T10:52:15.116Z,64.13
2022-10-02T10:55:12.391Z,64.06
2022-10-02T10:58:01.109Z,64.25
2022-10-02T11:00:45.774Z,63.91
2022-10-02T11:04:02.131Z,64.21
2022-10-02T11:07:09.013Z,63.05
2022-10-02T11:10:20.083Z,62.58
2022-10-02T11:13:05.688Z,62.10
2022-10-02T11:16:14.879Z,61.83
2022-10-02T11:19:29.310Z,61.31
2022-10-02T11:22:26.908Z,62.27
2022-10-02T11:25:57.534Z,60.89
2022-10-02T11:29:00.129Z,60.30
2022-10-02T11:31:54.655Z,60.25
2022-10-02T11:34:58.204Z,60.60
2022-10-02T11:38:03.997Z,60.66
2022-10-02T11:41:04.150Z,61.41
2022-10-02T11:44:04.783Z,60.51
2022-10-02T11:47:13.771Z,59.82
2022-10-02T11:50:41.557Z,58.56
2022-10-02T11:53:36.149Z,57.81
2022-10-02T11:56:35.561Z,59.36
2022-10-02T11:59:27.336Z,60.37
2022-10-02T12:02:04.932Z,59.82
2022-10-02T12:04:54.398Z,60.04
2022-10-02T12:07:38.260Z,61.41
2022-10-02T12:10:39.504Z,62.20
2022-10-02T12:13:40.279Z,60.27
2022-10-02T12:16:22.251Z,58.81
2022-10-02T12:19:11.310Z,57.36
2022-10-02T12:22:21.720Z,57.33
2022-10-02T12:25:21.817Z,57.24
2022-10-02T12:28:13.210Z,56.89
2022-10-02T12:30:50.744Z,58.23
2022-10-02T12:33:34.541Z,57.06
2022-10-02T12:36:42.514Z,57.61
2022-10-02T12:39:38.624Z,57.14
2022-10-02T12:43:00.174Z,56.79
2022-10-02T12:46:10.240Z,56.77
2022-10-02T12:49:01.880Z,56.72
2022-10-02T12:52:00.016Z,59.32
2022-10-02T12:55:17.865Z,61.06
2022-10-02T12:58:06.024Z,61.79
2022-10-02T13:01:04.014Z,61.24
2022-10-02T13:04:10.837Z,61.17
2022-10-02T13:07:51.019Z,61.69
2022-10-02T13:10:25.226Z,61.22
2022-10-02T13:13:17.188Z,59.93
2022-10-02T13:15:58.400Z,57.92
2022-10-02T13:18:55.335Z,57.92
2022-10-02T13:21:39.521Z,57.62
2022-10-02T13:24:35.792Z,58.00
2022-10-02T13:27:20.809Z,57.58
2022-10-02T13:30:07.292Z,57.31
2022-10-02T13:33:05.882Z,57.27
2022-10-02T13:36:05.078Z,58.75
2022-10-02T13:38:57.901Z,60.24
2022-10-02T13:41:42.346Z,60.46
2022-10-02T13:44:26.945Z,60.22
2022-10-02T13:47:38.708Z,60.48
2022-10-02T13:50:22.719Z,60.04
2022-10-02T13:53:19.764Z,59.95
2022-10-02T13:55:58.191Z,61.16
2022-10-02T13:58:58.582Z,61.34
2022-10-02T14:01:41.689Z,61.82
2022-10-02T14:04:32.824Z,62.53
2022-10-02T14:07:18.505Z,62.33
2022-10-02T14:10:03.029Z,63.07
2022-10-02T14:12:47.909Z,62.99
2022-10-02T14:15:38.530Z,63.32
2022-10-02T14:18:49.822Z,63.39
2022-10-02T14:21:31.962Z,63.19
2022-10-02T14:24:45.920Z,63.40
2022-10-02T14:27:45.275Z,63.67
2022-10-02T14:30:19.897Z,62.60
2022-10-02T14:33:05.153Z,62.52
2022-10-02T14:35:45.287Z,61.35
2022-10-02T14:38:44.012Z,61.54
2022-10-02T14:41:48.584Z,61.53
2022-10-02T14:45:01.262Z,61.60
2022-10-02T14:47:51.108Z,62.25
2022-10-02T14:50:41.745Z,62.29
2022-10-02T14:53:54.547Z,61.74
2022-10-02T14:56:55.247Z,62.62
2022-10-02T15:00:17.520Z,62.88
2022-10-02T15:03:18.947Z,63.03
2022-10-02T15:06:19.025Z,62.72
2022-10-02T15:08:55.759Z,62.47
2022-10-02T15:11:52.821Z,61.95
2022-10-02T15:14:29.622Z,62.73
2022-10-02T15:17:20.706Z,63.21
2022-10-02T15:19:56.181Z,63.40
2022-10-02T15:22:31.663Z,63.58
2022-10-02T15:25:18.321Z,64.34
2022-10-02T15:28:08.007Z,65.54
2022-10-02T15:30:58.084Z,67.63
2022-10-02T15:33:38.543Z,70.75
2022-10-02T15:36:45.052Z,73.29
2022-10-02T15:39:55.709Z,73.67
2022-10-02T15:42:50.044Z,74.26
2022-10-02T15:45:50.962Z,72.63
2022-10-02T15:48:59.697Z,73.87
2022-10-02T15:51:47.311Z,75.21
2022-10-02T15:54:32.088Z,75.66
2022-10-02T15:57:35.508Z,76.07
2022-10-02T16:00:14.627Z,75.81
2022-10-02T16:03:16.848Z,75.50
2022-10-02T16:05:53.331Z,76.44
2022-10-02T16:08:54.678Z,76.83
2022-10-02T16:12:00.217Z,77.62
2022-10-02T16:14:45.651Z,77.76
2022-10-02T16:17:53.579Z,78.29
2022-10-02T16:20:47.412Z,78.90
2022-10-02T16:23:43.986Z,78.89
2022-10-02T16:26:35.383Z,79.30
2022-10-02T16:29:28.237Z,79.18
2022-10-02T16:32:19.472Z,79.48
2022-10-02T16:35:17.080Z,79.38
2022-10-02T16:37:47.747Z,79.65
2022-10-02T16:40:27.809Z,80.09
2022-10-02T16:43:37.979Z,79.66
2022-10-02T16:46:11.899Z,79.74
2022-10-02T16:48:53.229Z,79.93
2022-10-02T16:51:50.499Z,80.64
2022-10-02T16:54:34.760Z,81.22
2022-10-02T16:57:15.499Z,81.56
2022-10-02T16:59:51.679Z,81.99
2022-10-02T17:02:28.688Z,80.84
2022-10-02T17:05:13.980Z,81.33
2022-10-02T17:07:57.261Z,81.91
2022-10-02T17:10:50.314Z,82.39
2022-10-02T17:13:30.475Z,83.16
2022-10-02T17:16:09.036Z,83.90
2022-10-02T17:18:46.862Z,84.51
2022-10-02T17:21:24.591Z,85.24
2022-10-02T17:24:23.588Z,86.21
2022-10-02T17:27:01.771Z,86.91
2022-10-02T17:29:40.437Z,87.52
2022-10-02T17:32:10.598Z,87.70
2022-10-02T17:34:50.188Z,88.09
2022-10-02T17:38:07.430Z,88.47
2022-10-02T17:40:47.716Z,89.12
2022-10-02T17:43:31.012Z,89.61
2022-10-02T17:46:28.542Z,90.14
2022-10-02T17:49:07.946Z,90.80
2022-10-02T17:51:53.226Z,91.12
2022-10-02T17:55:09.481Z,91.48
2022-10-02T17:57:58.946Z,91.55
2022-10-02T18:00:27.793Z,91.53
2022-10-02T18:03:26.337Z,91.51
2022-10-02T18:06:16.494Z,91.41
2022-10-02T18:09:18.052Z,91.21
2022-10-02T18:12:28.127Z,91.24
2022-10-02T18:15:27.084Z,91.59
2022-10-02T18:18:24.103Z,91.79
2022-10-02T18:21:09.120Z,91.76
2022-10-02T18:24:08.786Z,91.49
2022-10-02T18:27:08.751Z,91.36
2022-10-02T18:30:08.733Z,90.81
2022-10-02T18:33:10.342Z,90.29
2022-10-02T18:35:57.320Z,89.77
2022-10-02T18:38:31.796Z,89.29
2022-10-02T18:41:23.124Z,88.77
2022-10-02T18:44:16.890Z,88.63
2022-10-02T18:47:02.601Z,88.08
2022-10-02T18:49:52.668Z,88.21
2022-10-02T18:53:06.386Z,88.43
2022-10-02T18:56:05.696Z,87.99
2022-10-02T18:59:02.701Z,87.60
2022-10-02T19:01:53.585Z,87.81
2022-10-02T19:04:48.565Z,87.09
2022-10-02T19:07:22.135Z,86.29
2022-10-02T19:10:21.257Z,84.97
2022-10-02T19:12:57.104Z,84.54
2022-10-02T19:15:30.644Z,84.52
2022-10-02T19:18:03.417Z,84.44
2022-10-02T19:20:51.481Z,84.09
2022-10-02T19:23:31.545Z,83.17
2022-10-02T19:26:06.959Z,80.37
2022-10-02T19:28:46.509Z,80.69
2022-10-02T19:31:22.674Z,80.49
2022-10-02T19:33:59.005Z,79.52
2022-10-02T19:36:30.684Z,79.70
2022-10-02T19:39:04.115Z,80.17
2022-10-02T19:41:40.810Z,81.06
2022-10-02T19:44:22.164Z,81.31
2022-10-02T19:46:53.875Z,80.63
2022-10-02T19:49:30.149Z,81.21
2022-10-02T19:51:59.000Z,82.05
2022-10-02T19:54:36.516Z,81.55
2022-10-02T19:57:12.946Z,82.22
2022-10-02T19:59:47.786Z,82.73
2022-10-02T20:02:25.999Z,83.57
2022-10-02T20:05:02.679Z,83.71
2022-10-02T20:07:35.495Z,83.03
2022-10-02T20:10:12.816Z,83.08
2022-10-02T20:12:49.784Z,83.50
2022-10-02T20:15:38.954Z,83.93
2022-10-02T20:18:08.055Z,84.60
2022-10-02T20:20:40.251Z,85.45
2022-10-02T20:23:18.100Z,86.06
2022-10-02T20:25:53.730Z,86.71
2022-10-02T20:28:32.466Z,87.09
2022-10-02T20:31:07.081Z,87.51
2022-10-02T20:33:41.408Z,87.83
2022-10-02T20:36:18.338Z,88.04
2022-10-02T20:38:53.080Z,88.38
2022-10-02T20:41:27.324Z,88.68
2022-10-02T20:44:04.469Z,88.35
2022-10-02T20:47:10.209Z,87.30
2022-10-02T20:50:22.854Z,87.48
2022-10-02T20:53:57.237Z,87.80
2022-10-02T20:57:04.829Z,87.66
2022-10-02T21:00:15.603Z,87.81
2022-10-02T21:03:18.467Z,87.80
2022-10-02T21:06:38.717Z,86.92
2022-10-02T21:10:02.242Z,86.89
2022-10-02T21:13:17.514Z,87.13
2022-10-02T21:16:37.950Z,87.73
2022-10-02T21:19:42.520Z,88.10
2022-10-02T21:22:57.336Z,88.61
2022-10-02T21:26:26.703Z,88.65
2022-10-02T21:29:37.159Z,88.72
2022-10-02T21:32:36.375Z,89.16
2022-10-02T21:35:16.687Z,89.04
2022-10-02T21:38:07.361Z,89.11
2022-10-02T21:41:44.172Z,89.49
2022-10-02T21:45:06.015Z,89.77
2022-10-02T21:48:39.620Z,89.78
2022-10-02T21:52:03.903Z,89.89
2022-10-02T21:55:14.471Z,90.09
2022-10-02T21:58:42.721Z,90.28
2022-10-02T22:02:07.846Z,90.59
2022-10-02T22:05:19.352Z,90.89
2022-10-02T22:08:03.527Z,90.98
2022-10-02T22:10:49.254Z,91.19
2022-10-02T22:13:28.079Z,91.44
2022-10-02T22:16:22.999Z,91.26
2022-10-02T22:19:00.253Z,91.16
2022-10-02T22:22:07.416Z,91.28
2022-10-02T22:25:03.908Z,91.48
2022-10-02T22:27:57.542Z,91.55
2022-10-02T22:30:30.912Z,91.51
2022-10-02T22:33:43.969Z,91.71
2022-10-02T22:36:45.263Z,91.89
2022-10-02T22:39:23.531Z,92.38
2022-10-02T22:41:59.678Z,92.49
2022-10-02T22:44:35.910Z,92.66
2022-10-02T22:47:13.279Z,91.94
2022-10-02T22:49:50.610Z,91.37
2022-10-02T22:52:25.692Z,91.08
2022-10-02T22:55:01.862Z,90.66
2022-10-02T22:57:43.061Z,90.53
2022-10-02T23:00:19.767Z,90.12
2022-10-02T23:02:59.745Z,89.52
2022-10-02T23:05:40.371Z,88.54
2022-10-02T23:08:22.925Z,87.77
2022-10-02T23:11:01.059Z,87.51
2022-10-02T23:13:37.181Z,87.38
2022-10-02T23:16:15.278Z,87.70
2022-10-02T23:18:54.244Z,87.46
2022-10-02T23:21:45.642Z,87.55
2022-10-02T23:24:29.286Z,87.81
2022-10-02T23:27:12.616Z,88.32
2022-10-02T23:29:53.383Z,88.77
2022-10-02T23:32:31.593Z,89.03
2022-10-02T23:35:13.791Z,89.39
2022-10-02T23:37:53.935Z,89.68
2022-10-02T23:40:44.945Z,90.01
2022-10-02T23:43:21.943Z,89.98
2022-10-02T23:46:02.323Z,90.40
2022-10-02T23:48:32.809Z,90.68
2022-10-02T23:51:16.353Z,90.76
2022-10-02T23:54:29.225Z,90.63
2022-10-02T23:57:21.077Z,90.67
